Search for airport 
image banner adimage banner adimage banner ad
image banner ad

31D - Inter County

Located in Irwin, United States

ICAO - 31D, IATA -

Data provided by Airmate  

General information

Coordinates: N40°20'0" W79°46'45"
Elevation is 1250 feet MSL.
Magnetic variation is -08° East
View others Airports in Pennsylvania

Operational data

Special qualification required
Current time UTC:
Current local time:
Weather at : KAGC - Allegheny County ( 13 km )
METAR: KAGC 071353Z 35007KT 4SM -RA BR BKN039 OVC047 07/06 A2987 RMK AO2 SLP122 P0003 T00670061
TAF: KAGC 071133Z 0712/0812 VRB03KT P6SM -SHRA OVC040 FM071300 27004KT P6SM -SHRA OVC025 FM071500 28006KT 5SM -SHRA OVC010 TEMPO 0715/0717 OVC008 FM071900 31008G16KT P6SM VCSH BKN020 FM072100 31008KT P6SM BKN045 FM080500 25003KT P6SM VCSH OVC015
View NOTAMs / SUP AIP / TFR affecting this airport [VIEW]
Communications frequencies: [VIEW]

Runways:

RWY identifierQFULength (ft)Width (ft)SurfaceLDA (ft)
E1800120GRASS
W1800120GRASS

Airport contact information

Address: Irwin United States

Satellite view of 31D